Time;durP1;ratioP1;P1;durP2;ratioP2;P2;SDS_P1;SDS_P2;PMS_P1;PMS_P2;Temp;Humidity;BMP_temperature;BMP_pressure;BME280_temperature;BME280_humidity;BME280_pressure;Samples;Min_cycle;Max_cycle;Signal;HPM_P1;HPM_P2
2021/04/11 07:59:30;;;;;;;51.67;29.80;;;;;;;;;;5050243;28;20098;-50
2021/04/11 08:02:04;;;;;;;56.55;29.00;;;;;;;;;;5014262;28;20065;-54
2021/04/11 08:04:29;;;;;;;;;;;;;;;;;;5024799;28;20033;-50
2021/04/11 08:07:02;;;;;;;46.40;27.10;;;;;;;;;;5025773;28;19995;-50
2021/04/11 08:09:33;;;;;;;45.13;26.90;;;;;;;;;;5027163;28;20041;-49
2021/04/11 08:12:08;;;;;;;52.75;29.15;;;;;;;;;;5029013;28;20116;-49
2021/04/11 08:14:56;;;;;;;48.15;27.27;;;;;;;;;;5028353;28;20029;-49
2021/04/11 08:17:37;;;;;;;43.92;26.88;;;;;;;;;;5029698;28;20041;-50
2021/04/11 08:20:15;;;;;;;47.10;26.27;;;;;;;;;;5032974;28;20036;-49
2021/04/11 08:23:01;;;;;;;47.13;27.05;;;;;;;;;;5033570;28;20056;-50
2021/04/11 08:25:50;;;;;;;42.85;24.73;;;;;;;;;;5028927;28;20041;-49
2021/04/11 08:28:38;;;;;;;43.55;24.92;;;;;;;;;;5027819;28;20104;-53
2021/04/11 08:31:07;;;;;;;45.65;25.75;;;;;;;;;;5028299;28;20083;-49
2021/04/11 08:33:36;;;;;;;41.40;24.88;;;;;;;;;;5033758;28;20504;-50
2021/04/11 08:36:21;;;;;;;39.85;23.45;;;;;;;;;;5032019;28;20116;-49
2021/04/11 08:38:47;;;;;;;42.90;24.27;;;;;;;;;;5031435;28;20355;-49
2021/04/11 08:41:13;;;;;;;39.80;23.67;;;;;;;;;;5034229;28;20068;-49
2021/04/11 08:43:54;;;;;;;36.65;22.52;;;;;;;;;;5033741;28;20029;-49
2021/04/11 08:46:39;;;;;;;39.70;23.35;;;;;;;;;;5028584;28;20460;-49
2021/04/11 08:49:24;;;;;;;39.78;22.15;;;;;;;;;;5031297;28;20112;-48
2021/04/11 08:52:01;;;;;;;35.60;21.85;;;;;;;;;;5033919;28;20401;-48
2021/04/11 08:54:33;;;;;;;34.30;20.73;;;;;;;;;;5029859;28;20087;-48
2021/04/11 08:57:01;;;;;;;32.30;20.20;;;;;;;;;;5029854;28;20538;-49
2021/04/11 08:59:38;;;;;;;33.97;21.42;;;;;;;;;;5025286;28;20057;-48
2021/04/11 09:02:23;;;;;;;36.30;20.40;;;;;;;;;;5028197;28;20025;-47
2021/04/11 09:05:02;;;;;;;35.65;19.80;;;;;;;;;;5031560;28;20477;-48
2021/04/11 09:07:49;;;;;;;35.60;18.48;;;;;;;;;;5033266;28;20034;-48
2021/04/11 09:10:42;;;;;;;29.92;18.02;;;;;;;;;;5031707;28;20037;-48
2021/04/11 09:13:26;;;;;;;30.10;17.85;;;;;;;;;;5030352;28;20072;-49
2021/04/11 09:16:05;;;;;;;28.17;18.13;;;;;;;;;;5028575;28;20083;-49
2021/04/11 09:18:49;;;;;;;28.73;15.75;;;;;;;;;;5032508;28;20033;-48
2021/04/11 09:21:34;;;;;;;25.60;15.90;;;;;;;;;;5032719;28;20041;-50
2021/04/11 09:24:16;;;;;;;28.67;15.27;;;;;;;;;;5032985;28;20612;-48
2021/04/11 09:27:00;;;;;;;27.45;14.77;;;;;;;;;;5032948;28;20048;-48
2021/04/11 09:29:35;;;;;;;27.75;15.75;;;;;;;;;;5030158;28;20374;-50
2021/04/11 09:32:20;;;;;;;30.70;15.20;;;;;;;;;;5031875;28;20096;-48
2021/04/11 09:35:10;;;;;;;27.20;15.82;;;;;;;;;;5028481;28;20592;-49
2021/04/11 09:37:46;;;;;;;26.45;15.57;;;;;;;;;;5032674;28;20485;-48
2021/04/11 09:40:18;;;;;;;30.00;16.23;;;;;;;;;;5024777;28;20048;-49
2021/04/11 09:43:03;;;;;;;27.75;15.80;;;;;;;;;;5023615;28;20032;-48
2021/04/11 09:45:47;;;;;;;27.90;16.38;;;;;;;;;;5024968;28;20382;-48
2021/04/11 09:48:13;;;;;;;;;;;;;;;;;;5026233;28;20436;-48
2021/04/11 09:50:45;;;;;;;29.33;14.95;;;;;;;;;;5027303;28;19952;-50
2021/04/11 09:53:29;;;;;;;26.52;14.30;;;;;;;;;;5022835;28;20033;-48
2021/04/11 09:56:03;;;;;;;28.63;14.82;;;;;;;;;;5023731;28;20101;-52
2021/04/11 09:58:51;;;;;;;26.27;13.55;;;;;;;;;;5026245;28;20030;-50
2021/04/11 10:01:35;;;;;;;29.00;15.00;;;;;;;;;;5023036;28;20042;-48
2021/04/11 10:04:20;;;;;;;19.25;12.35;;;;;;;;;;5024409;28;20097;-48
2021/04/11 10:07:02;;;;;;;21.52;13.27;;;;;;;;;;5025887;28;20037;-48
2021/04/11 10:09:57;;;;;;;19.98;12.32;;;;;;;;;;5021764;28;20068;-49
2021/04/11 10:12:41;;;;;;;20.13;12.38;;;;;;;;;;5002326;28;20108;-49
2021/04/11 10:15:12;;;;;;;23.77;12.90;;;;;;;;;;5024006;28;20509;-48
2021/04/11 10:17:58;;;;;;;20.85;12.05;;;;;;;;;;5023700;28;20056;-51
2021/04/11 10:20:24;;;;;;;21.73;12.52;;;;;;;;;;5024250;28;20037;-47
2021/04/11 10:22:59;;;;;;;19.63;10.48;;;;;;;;;;5024901;28;20060;-48
2021/04/11 10:25:30;;;;;;;20.92;11.68;;;;;;;;;;5027043;28;20025;-50
2021/04/11 10:28:15;;;;;;;17.77;10.75;;;;;;;;;;5019122;28;20108;-50
2021/04/11 10:30:43;;;;;;;17.05;10.45;;;;;;;;;;5023468;28;20111;-50
2021/04/11 10:33:27;;;;;;;21.02;9.57;;;;;;;;;;5027246;28;20036;-48
2021/04/11 10:35:59;;;;;;;17.58;9.38;;;;;;;;;;5025264;28;20113;-47
2021/04/11 10:38:29;;;;;;;16.27;9.38;;;;;;;;;;5026092;28;20106;-48
2021/04/11 10:41:04;;;;;;;13.02;8.43;;;;;;;;;;5024408;28;20672;-51
2021/04/11 10:43:49;;;;;;;15.93;8.27;;;;;;;;;;5027177;28;20048;-46
2021/04/11 10:46:21;;;;;;;14.95;7.50;;;;;;;;;;5026732;28;20037;-46
2021/04/11 10:49:02;;;;;;;15.33;6.83;;;;;;;;;;5026238;28;20575;-48
2021/04/11 10:51:35;;;;;;;15.15;6.88;;;;;;;;;;5027254;28;20045;-48
2021/04/11 10:54:10;;;;;;;12.10;6.90;;;;;;;;;;5026613;28;20105;-48
2021/04/11 10:56:55;;;;;;;9.32;6.00;;;;;;;;;;5019082;28;20108;-46
2021/04/11 10:59:21;;;;;;;9.32;5.13;;;;;;;;;;5025229;28;20131;-48
2021/04/11 11:01:47;;;;;;;11.65;5.97;;;;;;;;;;5020312;28;20028;-46
2021/04/11 11:04:23;;;;;;;13.30;5.78;;;;;;;;;;5027814;28;20033;-50
2021/04/11 11:07:08;;;;;;;12.45;6.40;;;;;;;;;;5027338;28;20021;-51
2021/04/11 11:09:44;;;;;;;11.43;5.25;;;;;;;;;;5026982;28;20038;-51
2021/04/11 11:12:25;;;;;;;12.50;4.88;;;;;;;;;;5019480;28;20505;-48
2021/04/11 11:14:51;;;;;;;11.07;4.95;;;;;;;;;;5018518;28;20030;-53
2021/04/11 11:17:28;;;;;;;9.57;4.72;;;;;;;;;;5024085;28;20033;-50
2021/04/11 11:20:13;;;;;;;9.57;5.28;;;;;;;;;;5014986;28;20038;-49
2021/04/11 11:22:58;;;;;;;12.48;4.45;;;;;;;;;;5020936;28;20456;-54
2021/04/11 11:25:24;;;;;;;8.38;4.03;;;;;;;;;;5023920;28;20026;-50
2021/04/11 11:27:58;;;;;;;7.70;4.53;;;;;;;;;;5026625;28;20032;-51
2021/04/11 11:30:27;;;;;;;10.07;4.45;;;;;;;;;;5026084;28;20120;-54
2021/04/11 11:33:01;;;;;;;8.23;4.20;;;;;;;;;;5025572;28;20044;-54
2021/04/11 11:35:27;;;;;;;8.02;3.95;;;;;;;;;;5026741;28;20378;-54
2021/04/11 11:38:07;;;;;;;9.35;3.97;;;;;;;;;;5019863;28;20056;-53
2021/04/11 11:40:58;;;;;;;7.57;4.10;;;;;;;;;;5029096;28;20037;-51
2021/04/11 11:43:33;;;;;;;9.57;4.00;;;;;;;;;;5027549;28;20030;-50
2021/04/11 11:46:16;;;;;;;12.30;4.70;;;;;;;;;;5026798;28;20120;-51
2021/04/11 11:48:54;;;;;;;9.30;4.13;;;;;;;;;;5025286;28;20025;-54
2021/04/11 11:51:41;;;;;;;8.45;3.88;;;;;;;;;;5024358;28;20047;-56
2021/04/11 11:54:10;;;;;;;9.88;4.28;;;;;;;;;;5028815;28;20112;-52
2021/04/11 11:56:45;;;;;;;7.78;4.00;;;;;;;;;;5029625;28;20048;-49
2021/04/11 11:59:24;;;;;;;9.73;4.13;;;;;;;;;;5034794;28;20077;-52
2021/04/11 12:02:13;;;;;;;7.55;3.55;;;;;;;;;;5030115;28;20018;-48
2021/04/11 12:04:48;;;;;;;7.20;3.83;;;;;;;;;;5019585;28;20041;-52
2021/04/11 12:07:23;;;;;;;7.40;3.95;;;;;;;;;;5030796;28;20025;-53
2021/04/11 12:09:57;;;;;;;6.95;3.97;;;;;;;;;;5031946;28;20033;-51
2021/04/11 12:12:26;;;;;;;6.18;2.85;;;;;;;;;;5024174;28;20108;-54
2021/04/11 12:15:04;;;;;;;6.85;3.00;;;;;;;;;;5026938;28;20072;-48
2021/04/11 12:17:47;;;;;;;5.40;2.83;;;;;;;;;;5023203;28;20560;-53
2021/04/11 12:20:15;;;;;;;7.00;2.92;;;;;;;;;;5029924;28;20208;-52
2021/04/11 12:22:44;;;;;;;4.28;2.25;;;;;;;;;;5026957;28;20037;-53
2021/04/11 12:25:19;;;;;;;4.97;2.42;;;;;;;;;;5024529;28;20044;-52
2021/04/11 12:27:46;;;;;;;4.13;2.10;;;;;;;;;;5024764;28;20036;-50
2021/04/11 12:30:38;;;;;;;4.40;2.30;;;;;;;;;;5031289;28;20030;-49
2021/04/11 12:33:07;;;;;;;7.23;2.30;;;;;;;;;;5023341;28;20033;-50
2021/04/11 12:35:45;;;;;;;5.03;2.38;;;;;;;;;;5028571;28;20269;-51
2021/04/11 12:38:21;;;;;;;4.85;2.00;;;;;;;;;;5026629;28;20419;-49
2021/04/11 12:40:57;;;;;;;6.57;2.22;;;;;;;;;;5026100;28;20153;-51
2021/04/11 12:43:28;;;;;;;5.22;2.45;;;;;;;;;;5030591;28;20464;-48
2021/04/11 12:46:19;;;;;;;5.40;2.05;;;;;;;;;;5025988;28;20028;-49
2021/04/11 12:48:54;;;;;;;8.82;2.30;;;;;;;;;;5030096;28;20540;-49
2021/04/11 12:51:25;;;;;;;7.32;2.42;;;;;;;;;;5025184;28;20374;-48
2021/04/11 12:53:55;;;;;;;4.32;2.08;;;;;;;;;;5028457;28;20041;-48
2021/04/11 12:56:22;;;;;;;6.22;2.95;;;;;;;;;;5026945;28;20041;-49
2021/04/11 12:58:54;;;;;;;5.40;2.38;;;;;;;;;;5029341;28;20116;-49
2021/04/11 13:01:20;;;;;;;;;;;;;;;;;;5028070;28;20025;-48
2021/04/11 13:03:58;;;;;;;5.97;2.20;;;;;;;;;;5026610;28;19994;-48
2021/04/11 13:06:28;;;;;;;9.35;2.25;;;;;;;;;;5024759;28;20031;-50
2021/04/11 13:09:02;;;;;;;6.88;1.85;;;;;;;;;;5026370;28;20440;-48
2021/04/11 13:11:44;;;;;;;7.63;1.90;;;;;;;;;;5021867;28;20033;-49
2021/04/11 13:14:13;;;;;;;3.10;1.70;;;;;;;;;;5018865;28;20485;-48
2021/04/11 13:16:43;;;;;;;5.10;1.33;;;;;;;;;;5029314;28;20420;-49
2021/04/11 13:19:31;;;;;;;2.92;1.60;;;;;;;;;;5027996;28;20469;-49
2021/04/11 13:22:01;;;;;;;3.75;1.52;;;;;;;;;;5027717;28;20458;-50
2021/04/11 13:24:27;;;;;;;5.03;1.48;;;;;;;;;;5030965;28;20017;-48
2021/04/11 13:27:05;;;;;;;3.20;1.67;;;;;;;;;;5024269;28;20021;-49
2021/04/11 13:29:59;;;;;;;7.10;2.75;;;;;;;;;;5028260;28;20037;-50
2021/04/11 13:32:31;;;;;;;8.77;2.45;;;;;;;;;;5026392;28;20033;-49
2021/04/11 13:35:14;;;;;;;3.75;2.65;;;;;;;;;;5028380;28;20021;-48
2021/04/11 13:37:46;;;;;;;5.05;2.45;;;;;;;;;;5026642;28;20033;-53
2021/04/11 13:40:14;;;;;;;5.75;3.22;;;;;;;;;;5017221;28;20030;-50
2021/04/11 13:42:50;;;;;;;5.38;2.28;;;;;;;;;;5029121;28;20051;-49
2021/04/11 13:45:20;;;;;;;5.68;2.90;;;;;;;;;;5028495;28;20033;-53
2021/04/11 13:47:49;;;;;;;5.82;3.25;;;;;;;;;;5026773;28;20406;-50
2021/04/11 13:50:23;;;;;;;9.18;2.65;;;;;;;;;;5022013;28;20023;-53
2021/04/11 13:52:55;;;;;;;3.58;1.83;;;;;;;;;;5022273;28;20033;-52
2021/04/11 13:55:30;;;;;;;5.17;1.97;;;;;;;;;;5032153;28;20029;-51
2021/04/11 13:57:56;;;;;;;7.60;2.10;;;;;;;;;;5026180;28;20280;-48
2021/04/11 14:00:26;;;;;;;6.63;2.22;;;;;;;;;;5022566;28;20049;-54
2021/04/11 14:02:53;;;;;;;4.60;1.80;;;;;;;;;;5022974;28;20060;-54
2021/04/11 14:05:23;;;;;;;4.47;2.17;;;;;;;;;;5028293;28;20581;-51
2021/04/11 14:07:52;;;;;;;8.57;1.90;;;;;;;;;;5024109;28;20055;-52
2021/04/11 14:10:26;;;;;;;6.60;2.60;;;;;;;;;;5028684;28;20575;-49
2021/04/11 14:12:55;;;;;;;6.70;2.40;;;;;;;;;;5021168;28;20034;-48
2021/04/11 14:15:24;;;;;;;4.05;1.63;;;;;;;;;;5019826;28;20040;-52
2021/04/11 14:17:59;;;;;;;4.93;1.65;;;;;;;;;;5024206;28;20481;-53
2021/04/11 14:20:28;;;;;;;3.95;1.60;;;;;;;;;;5028454;28;20057;-51
2021/04/11 14:23:03;;;;;;;4.32;1.40;;;;;;;;;;5024843;28;20069;-52
2021/04/11 14:25:41;;;;;;;2.97;1.67;;;;;;;;;;5024322;28;20125;-53
2021/04/11 14:28:10;;;;;;;2.65;1.48;;;;;;;;;;5007351;28;20045;-51
2021/04/11 14:30:57;;;;;;;7.47;1.83;;;;;;;;;;5023848;28;20026;-54
2021/04/11 14:33:26;;;;;;;5.40;1.83;;;;;;;;;;5026835;28;20052;-52
2021/04/11 14:36:05;;;;;;;3.08;1.50;;;;;;;;;;5029108;28;20064;-52
2021/04/11 14:38:49;;;;;;;6.30;1.75;;;;;;;;;;5027136;28;20057;-53
2021/04/11 14:41:20;;;;;;;4.30;2.05;;;;;;;;;;5020451;28;20382;-49
2021/04/11 14:43:48;;;;;;;3.70;2.20;;;;;;;;;;5025943;28;20040;-51
2021/04/11 14:46:14;;;;;;;2.08;1.48;;;;;;;;;;5026473;28;20087;-53
2021/04/11 14:48:41;;;;;;;3.47;1.92;;;;;;;;;;5027592;28;20753;-50
2021/04/11 14:51:10;;;;;;;4.03;2.13;;;;;;;;;;5026440;28;20087;-53
2021/04/11 14:53:38;;;;;;;4.85;1.85;;;;;;;;;;5027192;28;20084;-49
2021/04/11 14:56:07;;;;;;;4.43;1.50;;;;;;;;;;5022981;28;20064;-51
2021/04/11 14:58:36;;;;;;;5.13;1.50;;;;;;;;;;5023999;28;20365;-52
2021/04/11 15:01:05;;;;;;;4.32;1.90;;;;;;;;;;5020084;28;20038;-53
2021/04/11 15:03:36;;;;;;;4.13;1.65;;;;;;;;;;5027627;28;20072;-51
2021/04/11 15:06:16;;;;;;;3.10;1.45;;;;;;;;;;5023292;28;20053;-51
2021/04/11 15:08:46;;;;;;;5.38;2.03;;;;;;;;;;5021416;28;20037;-51
2021/04/11 15:11:18;;;;;;;6.07;2.15;;;;;;;;;;5023922;28;20040;-51
2021/04/11 15:13:50;;;;;;;2.58;1.45;;;;;;;;;;5019858;28;20481;-54
2021/04/11 15:16:35;;;;;;;5.72;2.35;;;;;;;;;;5026740;28;20071;-56
2021/04/11 15:19:19;;;;;;;4.05;1.55;;;;;;;;;;5026631;28;20029;-54
2021/04/11 15:22:24;;;;;;;2.10;1.50;;;;;;;;;;5023621;28;20029;-54
2021/04/11 15:25:09;;;;;;;2.90;1.58;;;;;;;;;;4959745;28;20062;-54
2021/04/11 15:27:45;;;;;;;3.80;1.88;;;;;;;;;;4966696;28;20066;-55
2021/04/11 15:30:20;;;;;;;3.67;1.60;;;;;;;;;;5005606;28;20045;-50
2021/04/11 15:32:50;;;;;;;2.50;1.33;;;;;;;;;;5026037;28;20084;-53
2021/04/11 15:35:25;;;;;;;5.28;1.85;;;;;;;;;;5029283;28;20104;-49
2021/04/11 15:37:55;;;;;;;5.03;1.70;;;;;;;;;;5026549;28;20466;-53
2021/04/11 15:40:29;;;;;;;3.05;1.45;;;;;;;;;;5022356;28;20091;-51
2021/04/11 15:42:58;;;;;;;2.83;1.23;;;;;;;;;;5027590;28;20095;-53
2021/04/11 15:45:57;;;;;;;3.90;1.50;;;;;;;;;;5020242;28;20029;-48
2021/04/11 15:48:23;;;;;;;4.72;1.20;;;;;;;;;;4974565;28;20053;-51
2021/04/11 15:51:11;;;;;;;6.18;1.92;;;;;;;;;;5020177;28;20034;-51
2021/04/11 15:53:54;;;;;;;4.78;1.95;;;;;;;;;;5028700;28;20020;-48
2021/04/11 15:56:23;;;;;;;6.90;1.60;;;;;;;;;;5020575;28;20022;-54
2021/04/11 15:59:07;;;;;;;2.30;1.35;;;;;;;;;;5021621;28;20058;-53
2021/04/11 16:01:42;;;;;;;3.22;1.73;;;;;;;;;;5027920;28;20914;-52
2021/04/11 16:04:27;;;;;;;7.10;1.83;;;;;;;;;;5029834;28;20557;-53
2021/04/11 16:07:10;;;;;;;4.40;1.52;;;;;;;;;;5029683;28;20025;-52
2021/04/11 16:09:37;;;;;;;3.27;1.70;;;;;;;;;;5028970;28;20739;-48
2021/04/11 16:12:23;;;;;;;5.65;1.73;;;;;;;;;;5031913;28;20029;-50
2021/04/11 16:14:49;;;;;;;2.85;1.35;;;;;;;;;;5030911;28;20191;-51
2021/04/11 16:17:33;;;;;;;4.20;1.88;;;;;;;;;;5026671;28;20052;-51
2021/04/11 16:19:59;;;;;;;4.43;1.60;;;;;;;;;;5030197;28;20029;-51
2021/04/11 16:22:45;;;;;;;4.05;1.27;;;;;;;;;;5031748;28;20474;-49
2021/04/11 16:25:15;;;;;;;3.65;1.35;;;;;;;;;;5019078;28;20048;-52
2021/04/11 16:27:44;;;;;;;3.08;1.30;;;;;;;;;;5031458;28;20470;-53
2021/04/11 16:30:15;;;;;;;3.20;1.42;;;;;;;;;;5024463;28;20121;-55
2021/04/11 16:33:00;;;;;;;2.75;1.52;;;;;;;;;;5030979;28;20029;-52
2021/04/11 16:35:29;;;;;;;5.35;1.80;;;;;;;;;;5030739;28;20021;-50
2021/04/11 16:37:59;;;;;;;6.90;2.22;;;;;;;;;;5030360;28;20033;-54
2021/04/11 16:40:25;;;;;;;4.13;1.23;;;;;;;;;;5034409;28;20136;-54
2021/04/11 16:42:51;;;;;;;2.72;1.10;;;;;;;;;;5034758;28;20021;-51
2021/04/11 16:45:26;;;;;;;4.30;1.50;;;;;;;;;;5034800;28;20040;-50
2021/04/11 16:47:59;;;;;;;3.08;0.90;;;;;;;;;;5033650;28;20060;-50
2021/04/11 16:50:37;;;;;;;4.70;1.10;;;;;;;;;;5032992;28;20064;-55
2021/04/11 16:53:22;;;;;;;1.35;1.02;;;;;;;;;;5034265;28;20025;-55
2021/04/11 16:55:50;;;;;;;4.63;1.10;;;;;;;;;;5033652;28;20477;-51
2021/04/11 16:58:16;;;;;;;5.30;1.33;;;;;;;;;;5033397;28;20063;-54
2021/04/11 17:00:47;;;;;;;5.75;1.48;;;;;;;;;;5034524;28;20063;-53
2021/04/11 17:03:16;;;;;;;2.80;1.30;;;;;;;;;;5032113;28;20033;-52
2021/04/11 17:05:45;;;;;;;3.60;1.30;;;;;;;;;;5031473;28;20036;-50
2021/04/11 17:08:17;;;;;;;2.35;1.42;;;;;;;;;;5034390;28;20029;-50
2021/04/11 17:10:46;;;;;;;4.43;0.97;;;;;;;;;;5030646;28;20036;-53
2021/04/11 17:13:31;;;;;;;2.38;1.30;;;;;;;;;;5031548;28;20080;-53
2021/04/11 17:15:57;;;;;;;3.60;1.10;;;;;;;;;;5033688;28;20031;-50
2021/04/11 17:18:23;;;;;;;4.30;1.98;;;;;;;;;;5034076;28;20485;-55
2021/04/11 17:20:56;;;;;;;5.18;2.35;;;;;;;;;;5032500;28;20086;-52
2021/04/11 17:23:33;;;;;;;7.47;3.45;;;;;;;;;;5033118;28;20032;-51
2021/04/11 17:26:12;;;;;;;7.57;4.70;;;;;;;;;;5023803;28;20045;-52
2021/04/11 17:28:56;;;;;;;7.35;4.97;;;;;;;;;;5032716;28;20034;-54
2021/04/11 17:31:23;;;;;;;8.45;6.13;;;;;;;;;;5027896;28;20446;-52
2021/04/11 17:34:02;;;;;;;13.00;5.72;;;;;;;;;;5033652;28;20078;-53
2021/04/11 17:36:35;;;;;;;12.20;6.07;;;;;;;;;;5030608;28;20045;-49
2021/04/11 17:39:06;;;;;;;10.18;6.90;;;;;;;;;;5032535;28;20167;-51
2021/04/11 17:41:47;;;;;;;10.63;5.97;;;;;;;;;;5032941;28;20076;-51
2021/04/11 17:44:32;;;;;;;12.02;6.43;;;;;;;;;;5021765;28;20030;-50
2021/04/11 17:47:08;;;;;;;8.57;5.60;;;;;;;;;;5032818;28;20037;-51
2021/04/11 17:49:37;;;;;;;9.32;5.68;;;;;;;;;;5033603;28;20663;-49
2021/04/11 17:52:13;;;;;;;11.23;7.07;;;;;;;;;;5031098;28;20026;-52
2021/04/11 17:54:50;;;;;;;12.00;6.60;;;;;;;;;;5033153;28;20025;-52
2021/04/11 17:57:22;;;;;;;12.02;7.40;;;;;;;;;;5033016;28;20032;-49
2021/04/11 17:59:51;;;;;;;11.90;7.10;;;;;;;;;;5033318;28;20640;-52
2021/04/11 18:02:34;;;;;;;14.68;7.03;;;;;;;;;;5033369;28;20112;-55
2021/04/11 18:05:03;;;;;;;10.00;6.90;;;;;;;;;;5024529;28;20033;-53
2021/04/11 18:07:39;;;;;;;11.27;7.10;;;;;;;;;;5026424;28;20038;-53
2021/04/11 18:10:08;;;;;;;12.57;7.30;;;;;;;;;;5008927;28;20097;-55
2021/04/11 18:12:54;;;;;;;13.10;7.40;;;;;;;;;;5032613;28;20068;-50
2021/04/11 18:15:21;;;;;;;13.15;7.25;;;;;;;;;;5032025;28;20036;-52
2021/04/11 18:17:59;;;;;;;9.43;7.10;;;;;;;;;;5033063;28;20456;-49
2021/04/11 18:20:29;;;;;;;11.45;6.55;;;;;;;;;;5032689;28;20128;-51
2021/04/11 18:23:07;;;;;;;11.48;6.68;;;;;;;;;;5033102;28;20025;-52
2021/04/11 18:25:37;;;;;;;8.77;6.20;;;;;;;;;;5026333;28;20026;-52
2021/04/11 18:28:11;;;;;;;10.55;6.38;;;;;;;;;;5031493;28;20028;-49
2021/04/11 18:30:43;;;;;;;9.10;6.80;;;;;;;;;;5032333;28;20030;-49
2021/04/11 18:33:09;;;;;;;10.27;7.07;;;;;;;;;;5031499;28;20026;-50
2021/04/11 18:35:40;;;;;;;11.77;8.43;;;;;;;;;;5031080;28;20486;-53
2021/04/11 18:38:28;;;;;;;10.25;7.55;;;;;;;;;;5032671;28;20035;-51
2021/04/11 18:41:07;;;;;;;15.82;8.38;;;;;;;;;;5030737;28;20494;-55
2021/04/11 18:43:37;;;;;;;15.18;8.60;;;;;;;;;;5031356;28;20075;-54
2021/04/11 18:46:22;;;;;;;14.68;8.43;;;;;;;;;;5031835;28;20026;-54
2021/04/11 18:49:06;;;;;;;15.32;8.10;;;;;;;;;;5037741;28;20025;-49
2021/04/11 18:51:50;;;;;;;12.55;7.97;;;;;;;;;;5018900;28;20133;-53
2021/04/11 18:54:31;;;;;;;10.05;8.10;;;;;;;;;;5028874;28;20370;-51
2021/04/11 18:57:14;;;;;;;10.25;7.70;;;;;;;;;;5028382;28;20037;-52
2021/04/11 18:59:55;;;;;;;13.73;8.02;;;;;;;;;;5032193;28;20138;-51
2021/04/11 19:02:33;;;;;;;14.38;8.52;;;;;;;;;;5032487;28;20060;-52
2021/04/11 19:05:17;;;;;;;10.85;8.07;;;;;;;;;;5031719;28;20057;-50
2021/04/11 19:08:02;;;;;;;13.13;8.52;;;;;;;;;;5029255;28;20104;-49
2021/04/11 19:10:46;;;;;;;12.35;8.18;;;;;;;;;;5031914;28;20041;-50
2021/04/11 19:13:27;;;;;;;9.88;7.72;;;;;;;;;;5031122;28;20022;-49
2021/04/11 19:15:54;;;;;;;9.30;6.90;;;;;;;;;;5030607;28;20112;-50
2021/04/11 19:18:29;;;;;;;9.57;7.15;;;;;;;;;;5031603;28;20131;-50
2021/04/11 19:21:06;;;;;;;10.60;7.13;;;;;;;;;;5031122;28;20037;-49
2021/04/11 19:23:51;;;;;;;10.15;7.55;;;;;;;;;;5028800;28;20112;-50
2021/04/11 19:26:27;;;;;;;9.25;6.72;;;;;;;;;;5030261;28;20033;-50
2021/04/11 19:29:07;;;;;;;10.85;7.53;;;;;;;;;;5028218;28;20068;-51
2021/04/11 19:31:52;;;;;;;10.60;7.05;;;;;;;;;;5029456;28;20037;-52
2021/04/11 19:34:33;;;;;;;8.82;5.50;;;;;;;;;;5031550;28;20029;-50
2021/04/11 19:37:11;;;;;;;8.25;4.00;;;;;;;;;;5030515;28;20036;-53
2021/04/11 19:40:02;;;;;;;4.95;3.90;;;;;;;;;;5030588;28;20030;-50
2021/04/11 19:42:28;;;;;;;4.50;3.15;;;;;;;;;;5031332;28;20526;-52
2021/04/11 19:45:08;;;;;;;4.22;2.90;;;;;;;;;;5030437;28;20079;-49
2021/04/11 19:47:57;;;;;;;3.65;2.45;;;;;;;;;;5030012;28;20029;-52
2021/04/11 19:50:23;;;;;;;3.00;2.30;;;;;;;;;;5031779;28;20033;-49
2021/04/11 19:53:07;;;;;;;3.33;2.35;;;;;;;;;;5027355;28;20044;-50
2021/04/11 19:55:45;;;;;;;3.00;2.22;;;;;;;;;;5008710;28;20021;-53
2021/04/11 19:58:28;;;;;;;3.35;2.55;;;;;;;;;;5022484;28;20030;-50
2021/04/11 20:01:06;;;;;;;3.45;2.58;;;;;;;;;;5030422;28;20052;-49
2021/04/11 20:03:44;;;;;;;3.92;2.35;;;;;;;;;;5031144;28;20499;-49
2021/04/11 20:06:14;;;;;;;3.33;2.53;;;;;;;;;;5030605;28;20412;-49
2021/04/11 20:08:40;;;;;;;4.55;3.08;;;;;;;;;;5031118;28;20056;-51
2021/04/11 20:11:11;;;;;;;2.92;2.40;;;;;;;;;;5030800;28;20037;-50
2021/04/11 20:13:47;;;;;;;2.28;1.92;;;;;;;;;;5032601;28;20025;-51
2021/04/11 20:16:24;;;;;;;2.97;2.00;;;;;;;;;;5033823;28;20029;-50
2021/04/11 20:19:00;;;;;;;2.83;2.03;;;;;;;;;;5030437;28;20030;-50
2021/04/11 20:21:38;;;;;;;2.70;2.08;;;;;;;;;;5033808;28;20040;-50
2021/04/11 20:24:13;;;;;;;2.58;2.00;;;;;;;;;;5035444;28;20389;-53
2021/04/11 20:26:58;;;;;;;4.55;1.98;;;;;;;;;;5032132;28;20044;-52
2021/04/11 20:29:36;;;;;;;2.50;1.83;;;;;;;;;;5030406;28;20044;-53
2021/04/11 20:32:02;;;;;;;2.63;2.10;;;;;;;;;;5034478;28;20030;-52
2021/04/11 20:34:49;;;;;;;3.03;1.95;;;;;;;;;;5034786;28;20052;-50
2021/04/11 20:37:33;;;;;;;2.72;2.13;;;;;;;;;;5033335;28;20036;-51
2021/04/11 20:40:18;;;;;;;5.60;2.40;;;;;;;;;;5033907;28;20438;-53
2021/04/11 20:42:45;;;;;;;2.55;2.00;;;;;;;;;;5023716;28;20533;-52
2021/04/11 20:45:29;;;;;;;3.95;2.38;;;;;;;;;;5034523;28;20056;-49
2021/04/11 20:48:07;;;;;;;3.60;2.70;;;;;;;;;;5029688;28;20029;-51
2021/04/11 20:50:39;;;;;;;3.80;2.72;;;;;;;;;;5034711;28;20888;-51
2021/04/11 20:53:19;;;;;;;3.42;2.58;;;;;;;;;;5033502;28;20030;-51
2021/04/11 20:55:45;;;;;;;3.33;2.50;;;;;;;;;;5034194;28;20075;-53
2021/04/11 20:58:20;;;;;;;2.60;2.08;;;;;;;;;;5034820;28;20026;-54
2021/04/11 21:00:51;;;;;;;2.08;1.80;;;;;;;;;;5033405;28;20045;-51
2021/04/11 21:03:29;;;;;;;2.05;1.83;;;;;;;;;;5033379;28;20072;-55
2021/04/11 21:05:58;;;;;;;2.47;1.60;;;;;;;;;;5029573;28;20038;-49
2021/04/11 21:08:42;;;;;;;1.60;1.38;;;;;;;;;;5034245;28;20277;-49
2021/04/11 21:11:17;;;;;;;1.52;1.40;;;;;;;;;;5029432;28;20035;-51
2021/04/11 21:14:00;;;;;;;2.45;1.50;;;;;;;;;;5034246;28;20163;-49
2021/04/11 21:16:45;;;;;;;2.13;1.52;;;;;;;;;;5033394;28;20100;-50
2021/04/11 21:19:30;;;;;;;2.90;1.80;;;;;;;;;;5030660;28;20039;-50
2021/04/11 21:21:56;;;;;;;2.35;1.80;;;;;;;;;;5033742;28;20033;-52
2021/04/11 21:24:39;;;;;;;2.50;2.03;;;;;;;;;;5033233;28;20033;-50
2021/04/11 21:27:24;;;;;;;2.25;2.05;;;;;;;;;;5033286;28;20508;-51
2021/04/11 21:29:52;;;;;;;2.85;1.70;;;;;;;;;;5032032;28;20079;-49
2021/04/11 21:32:29;;;;;;;2.22;2.03;;;;;;;;;;5033733;28;20037;-51
2021/04/11 21:34:55;;;;;;;3.00;2.25;;;;;;;;;;5034511;28;20105;-53
2021/04/11 21:37:40;;;;;;;2.83;2.42;;;;;;;;;;5032690;28;20018;-52
2021/04/11 21:40:13;;;;;;;3.00;2.60;;;;;;;;;;5032590;28;20067;-53
2021/04/11 21:42:39;;;;;;;3.13;2.33;;;;;;;;;;5033658;28;20083;-50
2021/04/11 21:45:15;;;;;;;2.92;2.28;;;;;;;;;;5033785;28;20042;-51
2021/04/11 21:48:08;;;;;;;3.63;2.50;;;;;;;;;;5033314;28;20113;-54
2021/04/11 21:50:49;;;;;;;5.07;3.50;;;;;;;;;;5033575;28;20056;-51
2021/04/11 21:53:20;;;;;;;4.53;3.50;;;;;;;;;;5031027;28;20037;-51
2021/04/11 21:55:47;;;;;;;5.10;3.30;;;;;;;;;;5033709;28;20413;-50
2021/04/11 21:58:34;;;;;;;5.40;3.60;;;;;;;;;;5033316;28;20034;-49
2021/04/11 22:01:00;;;;;;;4.70;3.42;;;;;;;;;;5021838;28;20477;-50
2021/04/11 22:03:30;;;;;;;5.22;3.47;;;;;;;;;;5033056;28;20029;-51
2021/04/11 22:06:09;;;;;;;6.70;3.55;;;;;;;;;;5033480;28;20037;-53
2021/04/11 22:08:42;;;;;;;4.78;3.65;;;;;;;;;;5030466;28;20087;-52
2021/04/11 22:11:12;;;;;;;6.40;4.55;;;;;;;;;;5032780;28;20127;-49
2021/04/11 22:13:57;;;;;;;5.85;4.40;;;;;;;;;;5033345;28;20083;-50
2021/04/11 22:16:26;;;;;;;7.57;4.90;;;;;;;;;;5032158;28;20029;-52
2021/04/11 22:18:55;;;;;;;6.25;4.72;;;;;;;;;;5033019;28;20488;-49
2021/04/11 22:21:23;;;;;;;4.70;4.15;;;;;;;;;;5032999;28;20033;-49
2021/04/11 22:23:55;;;;;;;6.47;4.47;;;;;;;;;;5032336;28;20061;-48
2021/04/11 22:26:31;;;;;;;5.97;4.50;;;;;;;;;;5032318;28;20030;-49
2021/04/11 22:29:08;;;;;;;6.05;4.70;;;;;;;;;;5033481;28;20499;-49
2021/04/11 22:31:42;;;;;;;5.80;3.95;;;;;;;;;;5033294;28;20466;-48
2021/04/11 22:34:10;;;;;;;4.30;3.50;;;;;;;;;;5032755;28;20468;-49
2021/04/11 22:36:41;;;;;;;4.80;3.70;;;;;;;;;;5032107;28;20493;-49
2021/04/11 22:39:21;;;;;;;7.63;4.20;;;;;;;;;;5032582;28;20021;-48
2021/04/11 22:41:47;;;;;;;6.32;3.92;;;;;;;;;;5032796;28;20036;-49
2021/04/11 22:44:19;;;;;;;8.15;4.38;;;;;;;;;;5032876;28;20558;-49
2021/04/11 22:46:49;;;;;;;5.53;4.32;;;;;;;;;;5032339;28;20461;-48
2021/04/11 22:49:20;;;;;;;5.85;4.80;;;;;;;;;;5040907;28;20064;-49
2021/04/11 22:51:48;;;;;;;5.80;4.57;;;;;;;;;;5032330;28;20109;-49
2021/04/11 22:54:23;;;;;;;6.57;4.45;;;;;;;;;;5031615;28;20025;-51
2021/04/11 22:56:54;;;;;;;5.13;3.90;;;;;;;;;;5032142;28;20500;-49
2021/04/11 22:59:20;;;;;;;5.65;4.03;;;;;;;;;;5031863;28;20061;-52
2021/04/11 23:01:52;;;;;;;4.50;3.75;;;;;;;;;;5030217;28;20347;-51
2021/04/11 23:04:22;;;;;;;6.82;3.80;;;;;;;;;;5014411;28;20037;-53
2021/04/11 23:07:01;;;;;;;4.88;4.18;;;;;;;;;;5031798;28;20117;-49
2021/04/11 23:09:52;;;;;;;4.25;3.50;;;;;;;;;;5030944;28;20029;-50
2021/04/11 23:12:30;;;;;;;4.07;3.40;;;;;;;;;;5031907;28;20021;-52
2021/04/11 23:14:57;;;;;;;3.78;3.38;;;;;;;;;;5020263;28;20036;-52
2021/04/11 23:17:37;;;;;;;3.97;3.33;;;;;;;;;;5030128;28;20075;-49
2021/04/11 23:20:03;;;;;;;5.07;3.17;;;;;;;;;;5021715;28;21629;-51
2021/04/11 23:22:34;;;;;;;3.88;3.33;;;;;;;;;;5031238;28;20037;-53
2021/04/11 23:25:11;;;;;;;4.30;3.70;;;;;;;;;;5031827;28;20032;-53
2021/04/11 23:27:56;;;;;;;4.93;3.80;;;;;;;;;;5030754;28;20064;-54